Terminal Aerodrome Forecast
Issued by NWS

Home | Current Version | Previous Version | Graphics & Text | Print | Product List | Glossary On
Versions: 1 2 3 4 5 6 7 8 9 10 11 12 13 14 15 16 17 18 19 20 21 22 23 24 25 26 27 28 29 30 31 32
579
FTUS43 KLOT 032100 AAA
TAFDPA
TAF AMD
KDPA 032100Z 0321/0418 27005KT P6SM SCT025 BKN035
     FM041200 18005KT 6SM -SN OVC060
     FM041400 17006KT 3SM -SN BKN025 OVC050
     FM041500 17007KT 1SM -SN SCT007 OVC015
     FM041700 17008KT 1SM -SN BR OVC005=

USA.gov is the U.S. government's official web portal to all federal, state and local government web resources and services.